Time;durP1;ratioP1;P1;durP2;ratioP2;P2;SDS_P1;SDS_P2;PMS_P1;PMS_P2;Temp;Humidity;BMP_temperature;BMP_pressure;BME280_temperature;BME280_humidity;BME280_pressure;Samples;Min_cycle;Max_cycle;Signal;HPM_P1;HPM_P2
2022/01/07 00:01:31;;;;;;;3.00;1.40;;;-4.50;99.90;;;;;;5047725;28;20051;-74
2022/01/07 00:04:00;;;;;;;6.20;1.80;;;-4.50;99.90;;;;;;5050248;28;20064;-74
2022/01/07 00:06:28;;;;;;;4.82;1.70;;;-4.40;99.90;;;;;;5063308;28;20135;-74
2022/01/07 00:08:55;;;;;;;2.42;1.23;;;-4.40;99.90;;;;;;5047690;28;20037;-74
2022/01/07 00:11:22;;;;;;;3.85;1.25;;;-4.30;99.90;;;;;;5050041;28;20041;-74
2022/01/07 00:13:50;;;;;;;2.50;1.33;;;-4.30;99.90;;;;;;5048787;28;20075;-74
2022/01/07 00:16:17;;;;;;;6.97;0.80;;;-4.30;99.90;;;;;;5051960;28;20049;-74
2022/01/07 00:18:45;;;;;;;3.83;1.30;;;-4.20;99.90;;;;;;5052290;28;20057;-75
2022/01/07 00:21:14;;;;;;;3.72;1.10;;;-4.30;99.90;;;;;;5052678;28;20091;-74
2022/01/07 00:23:41;;;;;;;2.72;1.00;;;-4.30;99.90;;;;;;5053633;28;20045;-75
2022/01/07 00:26:08;;;;;;;3.05;1.08;;;-4.40;99.90;;;;;;5050016;28;20124;-75
2022/01/07 00:28:36;;;;;;;4.25;1.30;;;-4.50;99.90;;;;;;5050244;28;20114;-75
2022/01/07 00:31:03;;;;;;;1.88;1.30;;;-4.50;99.90;;;;;;5068902;28;20045;-75
2022/01/07 00:33:31;;;;;;;2.70;1.27;;;-4.60;99.90;;;;;;5051883;28;20053;-74
2022/01/07 00:35:59;;;;;;;3.63;1.38;;;-4.70;99.90;;;;;;5051294;28;20498;-75
2022/01/07 00:38:30;;;;;;;4.57;1.73;;;-4.80;99.90;;;;;;5051999;28;20064;-74
2022/01/07 00:40:58;;;;;;;1.05;0.95;;;-4.90;99.90;;;;;;5065235;28;20044;-74
2022/01/07 00:43:25;;;;;;;4.13;0.88;;;-5.10;99.90;;;;;;5050405;28;20045;-74
2022/01/07 00:45:52;;;;;;;1.67;1.05;;;-5.20;99.90;;;;;;5048244;28;20480;-75
2022/01/07 00:48:19;;;;;;;1.63;1.02;;;-5.30;99.90;;;;;;5053091;28;20335;-75
2022/01/07 00:50:47;;;;;;;4.22;1.67;;;-5.30;99.90;;;;;;5053184;28;20493;-75
2022/01/07 00:53:14;;;;;;;4.50;1.30;;;-5.40;99.90;;;;;;5050811;28;20533;-75
2022/01/07 00:55:43;;;;;;;1.55;0.80;;;-5.40;99.90;;;;;;5041031;28;20152;-75
2022/01/07 00:58:10;;;;;;;4.75;1.15;;;-5.40;99.90;;;;;;5051867;28;20049;-75
2022/01/07 01:00:38;;;;;;;3.40;1.05;;;-5.50;99.90;;;;;;5052598;28;20053;-75
2022/01/07 01:03:06;;;;;;;3.17;1.20;;;-5.40;99.90;;;;;;5048900;28;20055;-75
2022/01/07 01:05:33;;;;;;;1.85;1.10;;;-5.40;99.90;;;;;;5068192;28;20048;-75
2022/01/07 01:08:01;;;;;;;1.58;0.98;;;-5.40;99.90;;;;;;5052991;28;20044;-76
2022/01/07 01:10:28;;;;;;;3.38;0.93;;;-5.40;99.90;;;;;;5051673;28;20053;-75
2022/01/07 01:12:57;;;;;;;2.05;1.30;;;-5.40;99.90;;;;;;5049745;28;20139;-75
2022/01/07 01:15:27;;;;;;;1.73;1.25;;;-5.50;99.90;;;;;;5052254;28;20547;-75
2022/01/07 01:17:57;;;;;;;1.92;0.82;;;-5.60;99.90;;;;;;5052321;28;20049;-75
2022/01/07 01:20:24;;;;;;;1.17;0.90;;;-5.60;99.90;;;;;;5049432;28;20041;-75
2022/01/07 01:22:52;;;;;;;3.67;1.30;;;-5.70;99.90;;;;;;5050311;28;20043;-75
2022/01/07 01:25:19;;;;;;;1.75;1.65;;;-5.60;99.90;;;;;;5052528;28;20056;-75
2022/01/07 01:27:47;;;;;;;2.08;0.77;;;-5.60;99.90;;;;;;5067385;28;20440;-76
2022/01/07 01:30:18;;;;;;;2.50;1.30;;;-5.50;99.90;;;;;;5049964;28;20047;-76
2022/01/07 01:32:47;;;;;;;2.10;1.40;;;-5.50;99.90;;;;;;5051574;28;20037;-75
2022/01/07 01:35:15;;;;;;;2.67;1.08;;;-5.50;99.90;;;;;;5051865;28;20053;-75
2022/01/07 01:37:44;;;;;;;4.20;2.03;;;-5.60;99.90;;;;;;5052218;28;20083;-75
2022/01/07 01:40:12;;;;;;;3.13;1.00;;;-5.70;99.90;;;;;;5049679;28;20041;-75
2022/01/07 01:42:40;;;;;;;3.08;1.00;;;-5.80;99.90;;;;;;5052067;28;20167;-75
2022/01/07 01:45:11;;;;;;;2.67;1.00;;;-5.90;99.90;;;;;;5051773;28;20048;-75
2022/01/07 01:47:40;;;;;;;6.10;3.00;;;-5.90;99.90;;;;;;5049205;28;20057;-75
2022/01/07 01:50:09;;;;;;;3.90;0.90;;;-6.00;99.90;;;;;;5050650;28;20045;-75
2022/01/07 01:52:37;;;;;;;2.47;1.05;;;-5.90;99.90;;;;;;5051386;28;20056;-75
2022/01/07 01:55:07;;;;;;;1.13;0.70;;;-5.90;99.90;;;;;;5083415;28;20047;-74
2022/01/07 01:57:34;;;;;;;3.47;1.05;;;-5.90;99.90;;;;;;5048999;28;20062;-74
2022/01/07 02:00:04;;;;;;;1.95;1.27;;;-5.90;99.90;;;;;;5051427;28;20109;-74
2022/01/07 02:02:41;;;;;;;5.18;1.30;;;-5.90;99.90;;;;;;5051636;28;20144;-74
2022/01/07 02:05:10;;;;;;;2.38;1.35;;;-5.80;99.90;;;;;;5049578;28;20049;-74
2022/01/07 02:07:40;;;;;;;1.05;0.82;;;-5.80;99.90;;;;;;5048609;28;20075;-74
2022/01/07 02:10:13;;;;;;;4.18;1.48;;;-5.80;99.90;;;;;;5046937;28;20053;-74
2022/01/07 02:12:41;;;;;;;1.48;1.00;;;-5.80;99.90;;;;;;5042070;28;20048;-75
2022/01/07 02:15:11;;;;;;;2.25;1.02;;;-5.80;99.90;;;;;;5051285;28;20045;-75
2022/01/07 02:17:45;;;;;;;0.95;0.93;;;-5.90;99.90;;;;;;5047738;28;20135;-75
2022/01/07 02:20:18;;;;;;;5.72;1.15;;;-5.90;99.90;;;;;;5066929;28;20052;-74
2022/01/07 02:22:46;;;;;;;1.42;0.93;;;-6.00;99.90;;;;;;5051509;28;20049;-74
2022/01/07 02:25:15;;;;;;;3.28;1.10;;;-6.10;99.90;;;;;;5047612;28;20342;-75
2022/01/07 02:27:45;;;;;;;3.00;1.13;;;-6.20;99.90;;;;;;5051180;28;20151;-75
2022/01/07 02:30:17;;;;;;;5.28;1.05;;;-6.30;99.90;;;;;;5082454;28;20618;-75
2022/01/07 02:32:45;;;;;;;2.38;1.10;;;-6.30;99.90;;;;;;5050932;28;20138;-75
2022/01/07 02:35:15;;;;;;;1.40;1.02;;;-6.30;99.90;;;;;;5046515;28;20045;-75
2022/01/07 02:37:42;;;;;;;3.15;1.20;;;-6.30;99.90;;;;;;5050746;28;20485;-75
2022/01/07 02:40:11;;;;;;;5.63;1.30;;;-6.40;99.90;;;;;;5051380;28;20487;-75
2022/01/07 02:42:39;;;;;;;2.72;1.10;;;-6.40;99.90;;;;;;5049848;28;20131;-75
2022/01/07 02:45:10;;;;;;;3.50;1.20;;;-6.40;99.90;;;;;;5047660;28;20115;-75
2022/01/07 02:47:49;;;;;;;1.73;1.10;;;-6.50;99.90;;;;;;5049171;28;20056;-75
2022/01/07 02:50:19;;;;;;;1.98;1.55;;;-6.50;99.90;;;;;;5049194;28;20053;-75
2022/01/07 02:52:46;;;;;;;1.83;0.90;;;-6.50;99.90;;;;;;5047915;28;20041;-74
2022/01/07 02:55:15;;;;;;;2.47;0.80;;;-6.60;99.90;;;;;;5050680;28;20080;-74
2022/01/07 02:57:43;;;;;;;1.35;1.13;;;-6.50;99.90;;;;;;5050846;28;20059;-74
2022/01/07 03:00:12;;;;;;;4.97;1.40;;;-6.50;99.90;;;;;;5046466;28;20052;-75
2022/01/07 03:02:41;;;;;;;1.80;1.23;;;-6.60;99.90;;;;;;5047566;28;20053;-76
2022/01/07 03:05:09;;;;;;;4.70;1.27;;;-6.50;99.90;;;;;;5050876;28;20115;-74
2022/01/07 03:07:39;;;;;;;1.25;1.00;;;-6.50;99.90;;;;;;5049194;28;20053;-75
2022/01/07 03:10:09;;;;;;;2.97;0.88;;;-6.50;99.90;;;;;;5082294;28;20049;-74
2022/01/07 03:12:40;;;;;;;1.65;1.10;;;-6.50;99.90;;;;;;5047631;28;20084;-75
2022/01/07 03:15:09;;;;;;;2.38;1.10;;;-6.60;99.90;;;;;;5050922;28;20138;-75
2022/01/07 03:17:37;;;;;;;1.58;1.00;;;-6.60;99.90;;;;;;5050798;28;20053;-75
2022/01/07 03:20:07;;;;;;;1.77;0.90;;;-6.70;99.90;;;;;;5048371;28;20551;-75
2022/01/07 03:22:35;;;;;;;2.10;1.02;;;-6.70;99.90;;;;;;5049313;28;20072;-74
2022/01/07 03:25:05;;;;;;;4.32;1.17;;;-6.80;99.90;;;;;;5049436;28;20045;-75
2022/01/07 03:27:32;;;;;;;2.88;1.33;;;-6.90;99.90;;;;;;5065752;28;20056;-74
2022/01/07 03:30:00;;;;;;;3.50;1.40;;;-7.00;99.90;;;;;;5043519;28;20044;-75
2022/01/07 03:32:27;;;;;;;3.20;1.05;;;-7.10;99.90;;;;;;5050333;28;20053;-74
2022/01/07 03:34:55;;;;;;;6.38;2.40;;;-7.20;99.90;;;;;;5050704;28;20045;-74
2022/01/07 03:37:23;;;;;;;2.78;1.38;;;-7.30;99.90;;;;;;5050304;28;20045;-75
2022/01/07 03:39:50;;;;;;;2.17;1.90;;;-7.30;99.90;;;;;;5046118;28;20442;-75
2022/01/07 03:42:19;;;;;;;5.03;1.55;;;-7.40;99.90;;;;;;5049951;28;20410;-75
2022/01/07 03:44:46;;;;;;;2.85;1.77;;;-7.50;99.90;;;;;;5049095;28;20512;-75
2022/01/07 03:47:14;;;;;;;4.50;1.23;;;-7.60;99.90;;;;;;5061460;28;20101;-76
2022/01/07 03:49:42;;;;;;;3.85;1.80;;;-7.70;99.90;;;;;;5045562;28;20045;-75
2022/01/07 03:52:09;;;;;;;1.75;1.15;;;-7.70;99.90;;;;;;5053902;28;20103;-75
2022/01/07 03:54:36;;;;;;;2.30;1.33;;;-7.80;99.90;;;;;;5052616;28;20523;-75
2022/01/07 03:57:04;;;;;;;3.42;1.88;;;-7.90;99.90;;;;;;5051407;28;20044;-74
2022/01/07 03:59:33;;;;;;;4.10;1.80;;;-7.90;99.90;;;;;;5051846;28;20041;-75
2022/01/07 04:02:00;;;;;;;4.53;1.77;;;-7.90;99.90;;;;;;5053271;28;20139;-75
2022/01/07 04:04:27;;;;;;;2.67;1.75;;;-8.00;99.90;;;;;;5053038;28;20095;-75
2022/01/07 04:06:54;;;;;;;1.08;0.90;;;-8.00;99.90;;;;;;5050347;28;20045;-76
2022/01/07 04:09:22;;;;;;;2.25;1.42;;;-8.10;99.90;;;;;;5053837;28;20095;-75
2022/01/07 04:11:49;;;;;;;2.58;1.10;;;-8.10;99.90;;;;;;5052936;28;20053;-75
2022/01/07 04:14:16;;;;;;;6.15;1.45;;;-8.10;99.90;;;;;;5051909;28;20490;-75
2022/01/07 04:16:45;;;;;;;2.20;1.55;;;-8.10;99.90;;;;;;5050317;28;20102;-76
2022/01/07 04:19:13;;;;;;;2.13;1.30;;;-8.10;99.90;;;;;;5053847;28;20060;-76
2022/01/07 04:21:40;;;;;;;3.20;1.27;;;-8.00;99.90;;;;;;5051976;28;20045;-75
2022/01/07 04:24:07;;;;;;;2.35;1.63;;;-8.10;99.90;;;;;;5048443;28;20399;-75
2022/01/07 04:26:35;;;;;;;3.85;1.00;;;-8.10;99.90;;;;;;5052396;28;20147;-77
2022/01/07 04:29:02;;;;;;;1.35;0.98;;;-8.10;99.90;;;;;;5052356;28;20087;-77
2022/01/07 04:31:30;;;;;;;2.25;1.83;;;-8.10;99.90;;;;;;5068915;28;20061;-77
2022/01/07 04:33:58;;;;;;;5.13;0.98;;;-8.00;99.90;;;;;;5050673;28;20502;-76
2022/01/07 04:36:26;;;;;;;2.88;1.48;;;-8.10;99.90;;;;;;5066746;28;20056;-77
2022/01/07 04:38:53;;;;;;;1.95;1.13;;;-8.10;99.90;;;;;;5052819;28;20052;-77
2022/01/07 04:41:21;;;;;;;2.05;0.98;;;-8.10;99.90;;;;;;5050935;28;20053;-77
2022/01/07 04:43:48;;;;;;;5.43;1.30;;;-8.10;99.90;;;;;;5049733;28;20072;-77
2022/01/07 04:46:17;;;;;;;1.75;1.27;;;-8.10;99.90;;;;;;5052042;28;20053;-77
2022/01/07 04:48:44;;;;;;;4.13;1.50;;;-8.20;99.90;;;;;;5053237;28;20107;-78
2022/01/07 04:51:13;;;;;;;1.73;1.17;;;-8.20;99.90;;;;;;5051283;28;20057;-77
2022/01/07 04:53:41;;;;;;;2.95;1.20;;;-8.20;99.90;;;;;;5051277;28;20049;-77
2022/01/07 04:56:08;;;;;;;2.28;1.10;;;-8.20;99.90;;;;;;5048067;28;20128;-77
2022/01/07 04:58:35;;;;;;;2.90;1.85;;;-8.20;99.90;;;;;;5057751;28;20045;-77
2022/01/07 05:01:03;;;;;;;1.17;0.93;;;-8.20;99.90;;;;;;5049992;28;20041;-77
2022/01/07 05:03:31;;;;;;;0.75;0.73;;;-8.20;99.90;;;;;;5050508;28;20045;-77
2022/01/07 05:06:13;;;;;;;4.15;1.27;;;-8.30;99.90;;;;;;5053156;28;20055;-77
2022/01/07 05:08:42;;;;;;;2.28;1.85;;;-8.30;99.90;;;;;;5067666;28;20139;-77
2022/01/07 05:11:09;;;;;;;2.47;1.20;;;-8.40;99.90;;;;;;5050272;28;20080;-77
2022/01/07 05:13:37;;;;;;;1.58;1.02;;;-8.40;99.90;;;;;;5066452;28;20060;-77
2022/01/07 05:16:05;;;;;;;2.13;1.25;;;-8.40;99.90;;;;;;5050997;28;20055;-77
2022/01/07 05:18:32;;;;;;;1.20;0.80;;;-8.50;99.90;;;;;;5048495;28;20051;-75
2022/01/07 05:21:00;;;;;;;3.15;1.52;;;-8.50;99.90;;;;;;5050720;28;20040;-76
2022/01/07 05:23:27;;;;;;;6.47;1.25;;;-8.60;99.90;;;;;;5052497;28;20044;-76
2022/01/07 05:25:56;;;;;;;2.10;1.38;;;-8.60;99.90;;;;;;5052613;28;20440;-78
2022/01/07 05:28:23;;;;;;;6.20;1.60;;;-8.70;99.90;;;;;;5082613;28;20509;-77
2022/01/07 05:30:51;;;;;;;1.90;1.20;;;-8.80;99.90;;;;;;5048987;28;20103;-77
2022/01/07 05:33:18;;;;;;;2.08;1.17;;;-9.00;99.90;;;;;;5051291;28;20424;-77
2022/01/07 05:35:45;;;;;;;1.67;0.90;;;-9.10;99.90;;;;;;5049672;28;20072;-77
2022/01/07 05:38:13;;;;;;;3.45;1.05;;;-9.20;99.90;;;;;;5049665;28;20071;-76
2022/01/07 05:40:40;;;;;;;2.03;0.90;;;-9.20;99.90;;;;;;5049005;28;20055;-76
2022/01/07 05:43:09;;;;;;;3.05;1.70;;;-9.20;99.90;;;;;;5051976;28;20049;-77
2022/01/07 05:45:36;;;;;;;6.90;1.60;;;-9.30;99.90;;;;;;5048519;28;20513;-76
2022/01/07 05:48:04;;;;;;;3.05;1.58;;;-9.40;99.90;;;;;;5049499;28;20055;-77
2022/01/07 05:50:32;;;;;;;2.15;1.38;;;-9.50;99.90;;;;;;5049747;28;20536;-77
2022/01/07 05:52:59;;;;;;;1.70;1.00;;;-9.60;99.90;;;;;;5049829;28;20052;-76
2022/01/07 05:55:27;;;;;;;2.70;1.17;;;-9.60;99.90;;;;;;5047238;28;20174;-77
2022/01/07 05:57:55;;;;;;;2.45;1.30;;;-9.70;99.90;;;;;;5050101;28;20042;-77
2022/01/07 06:00:24;;;;;;;1.58;1.20;;;-9.70;99.90;;;;;;5052461;28;20080;-77
2022/01/07 06:02:52;;;;;;;5.60;1.90;;;-9.80;99.90;;;;;;5051227;28;20394;-75
2022/01/07 06:05:19;;;;;;;4.00;1.27;;;-9.80;99.90;;;;;;5046400;28;21642;-75
2022/01/07 06:07:47;;;;;;;3.80;1.55;;;-9.90;99.90;;;;;;5050331;28;20068;-75
2022/01/07 06:10:15;;;;;;;5.43;1.92;;;-9.90;99.90;;;;;;5049942;28;20052;-74
2022/01/07 06:12:42;;;;;;;3.60;1.63;;;-9.90;99.90;;;;;;5046312;28;20049;-75
2022/01/07 06:15:11;;;;;;;3.45;1.00;;;-9.90;99.90;;;;;;5050725;28;20138;-74
2022/01/07 06:17:40;;;;;;;4.22;1.30;;;-9.80;99.90;;;;;;5048295;28;20041;-76
2022/01/07 06:20:10;;;;;;;1.90;1.65;;;-9.80;99.90;;;;;;5040814;28;20049;-75
2022/01/07 06:22:38;;;;;;;3.78;1.50;;;-9.80;99.90;;;;;;5044898;28;20045;-75
2022/01/07 06:25:09;;;;;;;1.90;1.48;;;-9.90;99.90;;;;;;5066479;28;20098;-75
2022/01/07 06:27:38;;;;;;;3.40;1.55;;;-10.00;99.90;;;;;;5049021;28;20059;-75
2022/01/07 06:30:10;;;;;;;3.30;1.40;;;-10.10;99.90;;;;;;5055486;28;20050;-75
2022/01/07 06:32:39;;;;;;;3.63;1.67;;;-10.10;99.90;;;;;;5071703;28;20130;-74
2022/01/07 06:35:09;;;;;;;3.72;1.70;;;-10.10;99.90;;;;;;5044885;28;20051;-76
2022/01/07 06:37:36;;;;;;;4.20;2.22;;;-10.10;99.90;;;;;;5049286;28;20083;-74
2022/01/07 06:40:06;;;;;;;4.90;2.40;;;-10.20;99.90;;;;;;5066514;28;20422;-76
2022/01/07 06:42:33;;;;;;;5.97;1.92;;;-10.20;99.90;;;;;;5049999;28;20048;-74
2022/01/07 06:45:02;;;;;;;3.78;1.80;;;-10.10;99.90;;;;;;5049479;28;20056;-74
2022/01/07 06:47:30;;;;;;;6.50;1.90;;;-10.20;99.90;;;;;;5051686;28;20052;-75
2022/01/07 06:49:59;;;;;;;9.95;2.30;;;-10.20;99.90;;;;;;5048907;28;20098;-78
2022/01/07 06:52:28;;;;;;;2.90;1.83;;;-10.20;99.90;;;;;;5049405;28;20147;-78
2022/01/07 06:54:56;;;;;;;3.80;2.13;;;-10.20;99.90;;;;;;5049636;28;20378;-77
2022/01/07 06:57:25;;;;;;;3.20;0.98;;;-10.30;99.90;;;;;;5049771;28;20056;-77
2022/01/07 06:59:53;;;;;;;3.35;1.38;;;-10.30;99.90;;;;;;5048823;28;20136;-78
2022/01/07 07:02:21;;;;;;;3.42;1.25;;;-10.30;99.90;;;;;;5050875;28;20075;-78
2022/01/07 07:04:48;;;;;;;3.92;1.25;;;-10.40;99.90;;;;;;5065085;28;20049;-82
2022/01/07 07:07:17;;;;;;;3.10;1.65;;;-10.40;99.90;;;;;;5052457;28;20103;-83
2022/01/07 07:09:44;;;;;;;3.70;1.50;;;-10.50;99.90;;;;;;5032573;28;20071;-75
2022/01/07 07:12:13;;;;;;;3.17;1.58;;;-10.50;99.90;;;;;;5045753;28;20147;-83
2022/01/07 07:14:40;;;;;;;6.50;1.65;;;-10.50;99.90;;;;;;5047398;28;20053;-81
2022/01/07 07:17:07;;;;;;;3.13;1.50;;;-10.50;99.90;;;;;;5047822;28;20049;-81
2022/01/07 07:19:35;;;;;;;3.53;2.28;;;-10.40;99.90;;;;;;5048293;28;20055;-80
2022/01/07 07:22:03;;;;;;;1.88;1.50;;;-10.40;99.90;;;;;;5045141;28;20072;-81
2022/01/07 07:24:31;;;;;;;4.90;2.25;;;-10.40;99.90;;;;;;5053061;28;20429;-82
2022/01/07 07:27:00;;;;;;;1.98;1.10;;;-10.50;99.90;;;;;;5053412;28;20051;-82
2022/01/07 07:29:31;;;;;;;5.50;1.65;;;-10.50;99.90;;;;;;5056094;28;20079;-83
2022/01/07 07:32:01;;;;;;;3.47;1.88;;;-10.50;99.90;;;;;;5053236;28;20505;-81
2022/01/07 07:37:14;;;;;;;3.03;1.50;;;-10.40;99.90;;;;;;5058041;28;20144;-81
2022/01/07 07:39:45;;;;;;;4.40;1.83;;;-10.40;99.90;;;;;;5057441;28;20064;-80
2022/01/07 07:42:13;;;;;;;6.03;1.80;;;-10.30;99.90;;;;;;5057572;28;20045;-83
2022/01/07 07:44:40;;;;;;;4.05;1.80;;;-10.20;99.90;;;;;;5055923;28;20056;-79
2022/01/07 07:47:08;;;;;;;2.95;1.75;;;-10.20;99.90;;;;;;5057713;28;20041;-83
2022/01/07 07:49:35;;;;;;;3.10;2.00;;;-10.10;99.90;;;;;;5053747;28;20048;-80
2022/01/07 07:52:04;;;;;;;5.10;1.83;;;-10.10;99.90;;;;;;5057138;28;20068;-80
2022/01/07 07:54:32;;;;;;;2.33;1.88;;;-10.10;99.90;;;;;;5054301;28;20056;-83
2022/01/07 07:57:01;;;;;;;3.47;1.90;;;-10.00;99.90;;;;;;5057924;28;20057;-77
2022/01/07 07:59:28;;;;;;;5.97;2.45;;;-9.90;99.90;;;;;;5054720;28;20040;-75
2022/01/07 08:01:56;;;;;;;4.00;1.83;;;-9.70;99.90;;;;;;5066482;28;20712;-75
2022/01/07 08:04:24;;;;;;;4.47;1.65;;;-9.60;99.90;;;;;;5051510;28;20049;-79
2022/01/07 08:06:51;;;;;;;3.15;1.85;;;-9.50;99.90;;;;;;5056931;28;20049;-76
2022/01/07 08:09:19;;;;;;;5.28;2.22;;;-9.40;99.90;;;;;;5054335;28;20055;-76
2022/01/07 08:11:51;;;;;;;5.07;1.90;;;-9.30;99.90;;;;;;5053387;28;20085;-76
2022/01/07 08:17:06;;;;;;;5.70;1.77;;;-9.30;99.90;;;;;;5053699;28;19932;-77
2022/01/07 08:19:34;;;;;;;3.55;1.98;;;-9.30;99.90;;;;;;5055799;28;20049;-76
2022/01/07 08:22:02;;;;;;;4.03;2.45;;;-9.30;99.90;;;;;;5069814;28;20525;-77
2022/01/07 08:24:30;;;;;;;4.47;1.80;;;-9.30;99.90;;;;;;5089086;28;20049;-77
2022/01/07 08:26:58;;;;;;;4.63;2.33;;;-9.20;99.90;;;;;;5055495;28;20051;-75
2022/01/07 08:29:32;;;;;;;5.45;2.13;;;-9.20;99.90;;;;;;5057032;28;20469;-81
2022/01/07 08:34:54;;;;;;;7.15;3.40;;;-9.20;99.90;;;;;;5053662;28;20048;-79
2022/01/07 08:37:25;;;;;;;3.97;2.17;;;-9.20;99.90;;;;;;5062635;28;20045;-77
2022/01/07 08:39:54;;;;;;;4.75;2.17;;;-9.20;99.90;;;;;;5051530;28;20041;-75
2022/01/07 08:42:23;;;;;;;8.77;2.25;;;-9.30;99.90;;;;;;5051001;28;20528;-76
2022/01/07 08:44:54;;;;;;;6.18;2.78;;;-9.30;99.90;;;;;;5047962;28;20061;-76
2022/01/07 08:47:28;;;;;;;6.03;2.75;;;-9.30;99.90;;;;;;5051485;28;20044;-77
2022/01/07 08:49:56;;;;;;;2.28;2.05;;;-9.40;99.90;;;;;;5051282;28;20194;-77
2022/01/07 08:52:23;;;;;;;6.03;2.17;;;-9.40;99.90;;;;;;5051057;28;20059;-76
2022/01/07 08:54:51;;;;;;;4.38;2.13;;;-9.50;99.90;;;;;;5065605;28;20093;-81
2022/01/07 08:57:20;;;;;;;2.95;2.17;;;-9.50;99.90;;;;;;5049861;28;20064;-81
2022/01/07 08:59:48;;;;;;;2.97;1.60;;;-9.50;99.90;;;;;;5047103;28;20497;-83
2022/01/07 09:02:17;;;;;;;4.80;1.92;;;-9.40;99.90;;;;;;5048699;28;20501;-81
2022/01/07 09:04:44;;;;;;;2.67;1.70;;;-9.40;99.90;;;;;;5048579;28;20051;-82
2022/01/07 09:07:12;;;;;;;6.00;1.48;;;-9.40;99.90;;;;;;5067357;28;20056;-80
2022/01/07 09:09:40;;;;;;;6.55;2.47;;;-9.40;99.90;;;;;;5051979;28;20053;-81
2022/01/07 09:12:10;;;;;;;2.88;1.60;;;-9.40;99.90;;;;;;5050786;28;20077;-82
2022/01/07 09:14:45;;;;;;;5.57;2.08;;;-9.40;99.90;;;;;;5051658;28;20474;-82
2022/01/07 09:17:12;;;;;;;3.40;1.60;;;-9.50;99.90;;;;;;5046046;28;20425;-78
2022/01/07 09:19:41;;;;;;;3.58;2.15;;;-9.40;99.90;;;;;;5050111;28;20053;-79
2022/01/07 09:22:11;;;;;;;2.95;1.35;;;-9.30;99.90;;;;;;5052550;28;20060;-82
2022/01/07 09:24:38;;;;;;;11.98;2.17;;;-9.20;99.90;;;;;;5037199;28;20037;-81
2022/01/07 09:27:06;;;;;;;3.78;1.50;;;-9.10;99.90;;;;;;5083618;28;20144;-81
2022/01/07 09:29:33;;;;;;;4.57;2.30;;;-9.10;99.90;;;;;;5054363;28;20131;-82
2022/01/07 09:32:03;;;;;;;4.95;1.95;;;-9.20;99.90;;;;;;5061247;28;20321;-82
2022/01/07 09:34:32;;;;;;;4.53;1.75;;;-9.10;99.90;;;;;;5051790;28;20497;-81
2022/01/07 09:37:01;;;;;;;2.05;1.55;;;-9.10;99.90;;;;;;5052160;28;20091;-79
2022/01/07 09:39:28;;;;;;;4.97;2.17;;;-9.10;99.90;;;;;;5050983;28;20053;-81
2022/01/07 09:41:56;;;;;;;3.97;1.90;;;-9.20;99.90;;;;;;5051175;28;20092;-83
2022/01/07 09:44:24;;;;;;;3.17;2.05;;;-9.20;99.90;;;;;;5041934;28;20049;-80
2022/01/07 09:46:52;;;;;;;1.60;1.48;;;-9.20;99.90;;;;;;5075697;28;20124;-80
2022/01/07 09:49:19;;;;;;;3.58;2.17;;;-9.20;99.90;;;;;;5051336;28;20049;-89
2022/01/07 09:51:47;;;;;;;3.15;1.85;;;-9.30;99.90;;;;;;5050984;28;20061;-82
2022/01/07 09:54:15;;;;;;;5.95;2.58;;;-9.30;99.90;;;;;;5051626;28;20053;-77
2022/01/07 09:56:43;;;;;;;4.55;1.73;;;-9.30;99.90;;;;;;5049910;28;20045;-79
2022/01/07 09:59:10;;;;;;;3.38;1.67;;;-9.40;99.90;;;;;;5050254;28;20048;-77
2022/01/07 10:01:57;;;;;;;5.80;2.97;;;-9.40;99.90;;;;;;5083992;28;20098;-80
2022/01/07 10:04:30;;;;;;;4.13;1.95;;;-9.20;99.90;;;;;;5080280;28;20049;-76
2022/01/07 10:07:16;;;;;;;4.45;1.77;;;-9.20;99.90;;;;;;5084086;28;20052;-82
2022/01/07 10:10:00;;;;;;;3.38;1.85;;;-9.20;99.90;;;;;;5046574;28;20068;-80
2022/01/07 10:12:31;;;;;;;3.80;1.90;;;-9.30;99.90;;;;;;5051361;28;20144;-80
2022/01/07 10:15:14;;;;;;;7.78;2.65;;;-9.20;99.90;;;;;;5079714;28;20047;-79
2022/01/07 10:17:43;;;;;;;4.15;2.05;;;-9.20;99.90;;;;;;5045574;28;20059;-79
2022/01/07 10:20:16;;;;;;;4.15;1.95;;;-9.10;99.90;;;;;;5049574;28;20048;-80
2022/01/07 10:22:53;;;;;;;7.50;1.98;;;-8.90;99.90;;;;;;5046034;28;20045;-78
2022/01/07 10:25:26;;;;;;;3.67;1.88;;;-8.70;99.90;;;;;;5048092;28;20056;-76
2022/01/07 10:28:02;;;;;;;4.28;2.03;;;-8.50;99.90;;;;;;5049029;28;20140;-78
2022/01/07 10:30:36;;;;;;;5.93;1.98;;;-8.30;99.90;;;;;;5046751;28;20467;-77
2022/01/07 10:33:18;;;;;;;5.25;1.80;;;-8.40;99.90;;;;;;5049857;28;20193;-76
2022/01/07 10:35:46;;;;;;;5.78;2.10;;;-8.70;99.90;;;;;;5032235;28;20402;-76
2022/01/07 10:38:19;;;;;;;7.70;3.13;;;-8.60;99.90;;;;;;5048943;28;20056;-78
2022/01/07 10:40:50;;;;;;;8.68;2.72;;;-8.00;99.90;;;;;;5051107;28;20045;-80
2022/01/07 10:43:20;;;;;;;10.05;2.58;;;-7.80;99.90;;;;;;5049238;28;20501;-80
2022/01/07 10:45:50;;;;;;;6.38;2.20;;;-7.90;99.90;;;;;;5066205;28;20048;-80
2022/01/07 10:48:20;;;;;;;3.35;1.75;;;-7.50;99.90;;;;;;5065569;28;20148;-80
2022/01/07 10:50:51;;;;;;;5.32;2.50;;;-7.30;99.90;;;;;;5051285;28;20440;-84
2022/01/07 10:53:28;;;;;;;2.90;2.03;;;-7.00;99.90;;;;;;5050192;28;20083;-85
2022/01/07 10:56:09;;;;;;;3.88;2.63;;;-6.10;99.90;;;;;;5046824;28;20049;-83
2022/01/07 10:59:06;;;;;;;4.53;2.10;;;-5.30;99.90;;;;;;5049599;28;20059;-79
2022/01/07 11:01:42;;;;;;;4.13;2.05;;;-5.60;99.90;;;;;;5047015;28;20049;-84
2022/01/07 11:04:15;;;;;;;5.38;1.83;;;-6.40;99.90;;;;;;5046933;28;20425;-89
2022/01/07 11:06:47;;;;;;;4.25;2.08;;;-7.20;99.90;;;;;;5051484;28;20061;-88
2022/01/07 11:09:17;;;;;;;8.77;3.20;;;-8.00;99.90;;;;;;5049401;28;20045;-86
2022/01/07 11:11:50;;;;;;;3.85;1.70;;;-8.50;99.90;;;;;;5044039;28;20071;-89
2022/01/07 11:14:23;;;;;;;5.28;1.60;;;-8.90;99.90;;;;;;5047478;28;20306;-89
2022/01/07 11:16:50;;;;;;;6.22;2.40;;;-9.10;99.90;;;;;;5049076;28;20048;-88
2022/01/07 11:19:24;;;;;;;5.20;1.75;;;-9.30;99.90;;;;;;5062299;28;20136;-89
2022/01/07 11:21:55;;;;;;;3.92;1.88;;;-9.40;99.90;;;;;;5043032;28;20497;-89
2022/01/07 11:24:42;;;;;;;3.78;1.95;;;-9.70;99.90;;;;;;5061517;28;20059;-89
2022/01/07 11:27:14;;;;;;;5.43;2.33;;;-9.90;99.90;;;;;;5041502;28;20390;-86
2022/01/07 11:29:57;;;;;;;3.75;1.30;;;-10.00;99.90;;;;;;5048487;28;20053;-91
2022/01/07 11:32:37;;;;;;;4.40;2.05;;;-10.10;99.90;;;;;;5051421;28;20045;-88
2022/01/07 11:35:47;;;;;;;5.75;2.25;;;-10.30;99.90;;;;;;5049112;28;20053;-90
2022/01/07 11:38:43;;;;;;;6.63;2.50;;;-10.50;99.90;;;;;;5045770;28;20045;-90
2022/01/07 11:41:31;;;;;;;3.88;2.00;;;-10.50;99.90;;;;;;5051446;28;20104;-87
2022/01/07 11:44:13;;;;;;;4.10;2.28;;;-10.60;99.90;;;;;;5073051;28;20045;-86
2022/01/07 11:46:40;;;;;;;4.70;1.60;;;-10.60;99.90;;;;;;5049404;28;20146;-88
2022/01/07 11:49:33;;;;;;;6.43;3.38;;;-10.60;99.90;;;;;;5045399;28;20045;-88
2022/01/07 11:52:33;;;;;;;5.60;2.33;;;-10.60;99.90;;;;;;5033022;28;20705;-87
2022/01/07 11:55:27;;;;;;;5.28;2.13;;;-10.60;99.90;;;;;;5039433;28;20175;-86
2022/01/07 11:57:58;;;;;;;2.28;1.67;;;-10.60;99.90;;;;;;5038192;28;20057;-89
2022/01/07 12:00:57;;;;;;;5.78;2.60;;;-10.60;99.90;;;;;;5047972;28;20464;-87
2022/01/07 12:03:38;;;;;;;2.88;2.33;;;-10.40;99.90;;;;;;5044101;28;20467;-78
2022/01/07 12:06:47;;;;;;;5.90;2.80;;;-9.50;99.90;;;;;;5032395;28;20334;-79
2022/01/07 12:09:21;;;;;;;3.30;2.20;;;-8.50;99.90;;;;;;5040789;28;20052;-79
2022/01/07 12:11:59;;;;;;;5.38;2.33;;;-8.40;99.90;;;;;;5050813;28;20142;-85
2022/01/07 12:14:32;;;;;;;4.40;2.22;;;-8.80;99.90;;;;;;5052067;28;20106;-85
2022/01/07 12:17:05;;;;;;;7.10;3.63;;;-9.30;99.90;;;;;;5053643;28;20045;-88
2022/01/07 12:20:29;;;;;;;3.97;2.58;;;-9.80;99.90;;;;;;5051421;28;20040;-88
2022/01/07 12:22:57;;;;;;;3.00;2.35;;;-10.10;99.90;;;;;;5050944;28;20064;-82
2022/01/07 12:25:25;;;;;;;7.25;2.58;;;-10.50;99.90;;;;;;5052600;28;20056;-86
2022/01/07 12:28:02;;;;;;;5.28;2.42;;;-10.70;99.90;;;;;;5085510;28;20049;-89
2022/01/07 12:30:35;;;;;;;5.97;2.10;;;-10.90;99.90;;;;;;5051205;28;20049;-91
2022/01/07 12:33:10;;;;;;;6.72;2.42;;;-11.00;99.90;;;;;;5068739;28;20044;-90
2022/01/07 12:35:40;;;;;;;6.22;2.63;;;-11.10;99.90;;;;;;5053129;28;20416;-91
2022/01/07 12:38:17;;;;;;;10.32;2.30;;;-11.20;99.90;;;;;;5051629;28;20064;-83
2022/01/07 12:40:57;;;;;;;9.07;2.45;;;-11.30;99.90;;;;;;5053110;28;20481;-87
2022/01/07 12:43:33;;;;;;;7.18;2.78;;;-11.40;99.90;;;;;;5050029;28;20053;-84
2022/01/07 12:46:04;;;;;;;4.18;2.00;;;-11.40;99.90;;;;;;5061197;28;20052;-86
2022/01/07 12:48:41;;;;;;;3.45;2.10;;;-11.50;99.90;;;;;;5068913;28;20052;-88
2022/01/07 12:51:09;;;;;;;5.00;2.65;;;-11.50;99.90;;;;;;5049097;28;20465;-85
2022/01/07 12:53:56;;;;;;;6.70;2.75;;;-11.50;99.90;;;;;;5041237;28;20041;-84
2022/01/07 12:56:27;;;;;;;3.08;1.55;;;-11.50;99.90;;;;;;5053955;28;20053;-87
2022/01/07 12:58:55;;;;;;;5.63;2.55;;;-11.60;99.90;;;;;;5053092;28;20080;-86
2022/01/07 13:01:28;;;;;;;3.75;2.75;;;-11.60;99.90;;;;;;5048512;28;20125;-87
2022/01/07 13:04:09;;;;;;;8.65;2.28;;;-11.70;99.90;;;;;;5043472;28;20061;-86
2022/01/07 13:06:42;;;;;;;7.05;2.63;;;-11.70;99.90;;;;;;5053483;28;20077;-85
2022/01/07 13:09:11;;;;;;;9.82;2.78;;;-11.70;99.90;;;;;;5052307;28;20049;-77
2022/01/07 13:11:39;;;;;;;6.43;2.40;;;-11.70;99.90;;;;;;5052974;28;20068;-78